KBAB/BAB METAR and TAF weather

Enter ICAO airport designator
Station Type Date Time Source
KBAB METAR 2020/09/20 06:58 UTC NOAA

KBAB 200658Z AUTO 00000KT 10SM CLR 17/10 A2985 RMK AO2 SLP111 T01740100 $


Station Type Date Time Source
KBAB Decoded METAR 2020/09/20 06:58 UTC NOAA

Marysville, Beale Air Force Base, CA, United States (KBAB) 39-08N 121-26W
Sep 20, 2020 - 02:58 AM EDT / 2020.09.20 0658 UTC
Wind: Calm:0
Visibility: 10 mile(s):0
Sky conditions: clear
Temperature: 63.3 F (17.4 C)
Dew Point: 50.0 F (10.0 C)
Relative Humidity: 61%
Pressure (altimeter): 29.85 in. Hg (1010 hPa)
ob: KBAB 200658Z AUTO 00000KT 10SM CLR 17/10 A2985 RMK AO2 SLP111 T01740100
cycle: 7

Station Type Date Time Source
KBAB TAF 2020/09/19 00:09 UTC NOAA

TAF TAF
AMD KBAB 190000Z 1900/2001 18012KT 9999 FEW070 SCT200 QNH2988INS
BECMG 1904/1905 15008KT 9999 FEW200 QNH2993INS
BECMG 1911/1912 VRB05KT 9999 SKC QNH2997INS
BECMG 1918/1919 32009KT 9999 SKC QNH2987INS TX28/1900Z TN14/1914Z LAST NO
AMDS AFT 1900 NEXT 2019

Example: see airport list